createdAt,value
2022-09-15T00:00:32.655Z,4.20
2022-09-15T00:02:59.570Z,4.30
2022-09-15T00:05:26.597Z,4.23
2022-09-15T00:07:53.442Z,3.63
2022-09-15T00:10:20.344Z,4.13
2022-09-15T00:12:48.675Z,4.70
2022-09-15T00:15:17.707Z,4.17
2022-09-15T00:17:49.823Z,4.83
2022-09-15T00:20:18.621Z,4.33
2022-09-15T00:22:45.609Z,4.50
2022-09-15T00:25:15.361Z,4.10
2022-09-15T00:27:42.312Z,4.27
2022-09-15T00:30:09.589Z,4.40
2022-09-15T00:32:36.440Z,4.47
2022-09-15T00:35:05.172Z,4.50
2022-09-15T00:37:33.594Z,4.53
2022-09-15T00:40:00.486Z,5.17
2022-09-15T00:42:27.378Z,5.03
2022-09-15T00:45:00.844Z,4.50
2022-09-15T00:47:38.859Z,5.00
2022-09-15T00:50:11.191Z,4.43
2022-09-15T00:52:47.952Z,4.40
2022-09-15T00:55:17.435Z,4.50
2022-09-15T00:58:04.249Z,3.93
2022-09-15T01:00:31.163Z,4.90
2022-09-15T01:02:59.142Z,4.37
2022-09-15T01:05:32.988Z,4.40
2022-09-15T01:08:21.997Z,4.40
2022-09-15T01:10:49.277Z,4.27
2022-09-15T01:13:16.461Z,4.80
2022-09-15T01:16:21.636Z,4.67
2022-09-15T01:18:54.357Z,4.10
2022-09-15T01:21:27.092Z,4.80
2022-09-15T01:24:06.099Z,4.47
2022-09-15T01:26:56.535Z,4.60
2022-09-15T01:29:42.115Z,4.53
2022-09-15T01:32:35.452Z,4.70
2022-09-15T01:35:17.358Z,4.53
2022-09-15T01:37:50.290Z,4.77
2022-09-15T01:40:18.986Z,4.40
2022-09-15T01:42:48.416Z,4.50
2022-09-15T01:45:23.636Z,4.30
2022-09-15T01:47:54.547Z,5.07
2022-09-15T01:50:28.766Z,4.83
2022-09-15T01:53:02.382Z,4.60
2022-09-15T01:55:52.165Z,4.63
2022-09-15T01:58:19.695Z,4.00
2022-09-15T02:00:53.600Z,4.07
2022-09-15T02:03:27.527Z,3.70
2022-09-15T02:06:02.822Z,4.30
2022-09-15T02:08:47.635Z,3.53
2022-09-15T02:11:21.026Z,4.20
2022-09-15T02:14:17.733Z,4.33
2022-09-15T02:16:49.453Z,4.00
2022-09-15T02:19:31.682Z,4.60
2022-09-15T02:22:10.670Z,4.17
2022-09-15T02:24:45.832Z,4.13
2022-09-15T02:27:18.406Z,4.43
2022-09-15T02:29:48.895Z,5.07
2022-09-15T02:32:18.868Z,4.60
2022-09-15T02:34:50.524Z,3.83
2022-09-15T02:37:21.340Z,4.27
2022-09-15T02:39:53.576Z,3.97
2022-09-15T02:42:28.623Z,4.60
2022-09-15T02:44:56.052Z,4.73
2022-09-15T02:47:24.092Z,4.43
2022-09-15T02:49:51.312Z,4.43
2022-09-15T02:52:18.208Z,4.40
2022-09-15T02:54:45.105Z,4.60
2022-09-15T02:57:14.044Z,4.40
2022-09-15T03:00:02.957Z,4.70
2022-09-15T03:02:34.625Z,4.20
2022-09-15T03:05:02.548Z,4.70
2022-09-15T03:07:30.470Z,4.50
2022-09-15T03:09:57.767Z,4.23
2022-09-15T03:12:25.614Z,4.73
2022-09-15T03:14:52.546Z,4.53
2022-09-15T03:17:19.553Z,5.10
2022-09-15T03:19:46.439Z,7.17
2022-09-15T03:22:13.370Z,5.13
2022-09-15T03:24:42.317Z,5.13
2022-09-15T03:27:09.418Z,4.90
2022-09-15T03:29:36.279Z,5.73
2022-09-15T03:32:03.155Z,4.80
2022-09-15T03:34:30.041Z,5.43
2022-09-15T03:36:56.890Z,5.03
2022-09-15T03:39:24.363Z,5.00
2022-09-15T03:41:51.258Z,5.30
2022-09-15T03:44:19.285Z,4.90
2022-09-15T03:46:46.709Z,5.43
2022-09-15T03:49:15.113Z,4.70
2022-09-15T03:51:42.188Z,4.83
2022-09-15T03:54:09.206Z,4.70
2022-09-15T03:56:37.642Z,5.07
2022-09-15T03:59:05.847Z,5.13
2022-09-15T04:01:32.846Z,4.27
2022-09-15T04:04:00.484Z,3.70
2022-09-15T04:06:27.555Z,3.40
2022-09-15T04:08:55.221Z,3.60
2022-09-15T04:11:22.915Z,4.10
2022-09-15T04:13:50.502Z,3.20
2022-09-15T04:16:19.828Z,3.90
2022-09-15T04:18:46.955Z,7.60
2022-09-15T04:21:16.407Z,4.00
2022-09-15T04:23:44.310Z,4.47
2022-09-15T04:26:36.082Z,4.17
2022-09-15T04:29:05.255Z,4.27
2022-09-15T04:31:33.222Z,5.53
2022-09-15T04:34:01.280Z,4.87
2022-09-15T04:36:29.767Z,4.50
2022-09-15T04:38:57.235Z,4.20
2022-09-15T04:41:25.872Z,4.83
2022-09-15T04:43:53.303Z,4.50
2022-09-15T04:46:20.849Z,4.77
2022-09-15T04:48:49.403Z,4.47
2022-09-15T04:51:19.673Z,4.67
2022-09-15T04:53:48.988Z,4.23
2022-09-15T04:56:20.675Z,4.30
2022-09-15T04:58:50.459Z,4.07
2022-09-15T05:01:21.311Z,4.20
2022-09-15T05:03:48.919Z,5.47
2022-09-15T05:06:20.156Z,4.70
2022-09-15T05:08:51.502Z,4.30
2022-09-15T05:11:19.427Z,4.53
2022-09-15T05:13:47.075Z,4.67
2022-09-15T05:16:17.072Z,4.37
2022-09-15T05:18:45.544Z,4.63
2022-09-15T05:21:21.074Z,3.90
2022-09-15T05:23:49.450Z,4.50
2022-09-15T05:26:19.826Z,3.90
2022-09-15T05:28:46.749Z,3.93
2022-09-15T05:31:20.422Z,3.80
2022-09-15T05:33:53.895Z,4.30
2022-09-15T05:36:25.955Z,4.00
2022-09-15T05:38:54.297Z,4.20
2022-09-15T05:41:23.005Z,3.87
2022-09-15T05:43:51.043Z,3.70
2022-09-15T05:46:20.661Z,4.60
2022-09-15T05:48:48.981Z,4.00
2022-09-15T05:51:15.986Z,4.70
2022-09-15T05:53:42.919Z,4.80
2022-09-15T05:56:12.164Z,4.53
2022-09-15T05:58:44.163Z,3.37
2022-09-15T06:01:23.140Z,3.30
2022-09-15T06:03:50.734Z,3.43
2022-09-15T06:06:18.440Z,4.07
2022-09-15T06:08:52.815Z,3.70
2022-09-15T06:11:25.090Z,4.10
2022-09-15T06:13:52.003Z,4.17
2022-09-15T06:16:21.790Z,4.10
2022-09-15T06:18:51.478Z,3.50
2022-09-15T06:21:26.250Z,3.83
2022-09-15T06:24:00.984Z,3.80
2022-09-15T06:26:29.485Z,3.77
2022-09-15T06:28:59.325Z,3.90
2022-09-15T06:31:28.384Z,3.60
2022-09-15T06:33:57.010Z,3.40
2022-09-15T06:36:27.283Z,3.23
2022-09-15T06:38:54.811Z,3.30
2022-09-15T06:41:21.862Z,3.00
2022-09-15T06:43:49.460Z,3.13
2022-09-15T06:46:20.876Z,3.33
2022-09-15T06:48:48.752Z,3.50
2022-09-15T06:51:36.196Z,2.80
2022-09-15T06:54:04.388Z,3.23
2022-09-15T06:56:34.563Z,3.50
2022-09-15T06:59:04.968Z,3.33
2022-09-15T07:01:32.469Z,4.20
2022-09-15T07:04:02.880Z,3.60
2022-09-15T07:06:32.186Z,3.20
2022-09-15T07:08:59.603Z,2.73
2022-09-15T07:11:27.238Z,2.37
2022-09-15T07:13:54.149Z,2.83
2022-09-15T07:16:22.072Z,2.60
2022-09-15T07:18:50.045Z,2.90
2022-09-15T07:21:20.317Z,2.67
2022-09-15T07:23:49.305Z,2.97
2022-09-15T07:26:29.976Z,2.63
2022-09-15T07:28:59.791Z,3.87
2022-09-15T07:31:30.237Z,2.33
2022-09-15T07:33:59.361Z,3.23
2022-09-15T07:36:26.749Z,2.57
2022-09-15T07:38:53.812Z,2.40
2022-09-15T07:41:25.045Z,2.50
2022-09-15T07:43:54.097Z,2.90
2022-09-15T07:46:22.597Z,2.87
2022-09-15T07:48:52.090Z,4.20
2022-09-15T07:51:19.832Z,4.57
2022-09-15T07:53:48.402Z,4.60
2022-09-15T07:56:20.032Z,3.53
2022-09-15T07:58:48.217Z,2.43
2022-09-15T08:01:16.533Z,2.17
2022-09-15T08:03:51.411Z,3.13
2022-09-15T08:09:05.872Z,2.57
2022-09-15T08:11:32.816Z,2.87
2022-09-15T08:14:02.860Z,2.80
2022-09-15T08:16:30.744Z,2.87
2022-09-15T08:18:57.762Z,2.83
2022-09-15T08:21:42.196Z,2.57
2022-09-15T08:24:10.638Z,2.87
2022-09-15T08:26:38.930Z,3.17
2022-09-15T08:29:10.372Z,3.10
2022-09-15T08:31:40.113Z,3.00
2022-09-15T08:34:07.131Z,2.67
2022-09-15T08:36:34.376Z,2.60
2022-09-15T08:39:02.569Z,2.97
2022-09-15T08:41:33.935Z,2.80
2022-09-15T08:44:22.816Z,2.17
2022-09-15T08:47:20.856Z,3.00
2022-09-15T08:50:32.130Z,3.40
2022-09-15T08:53:07.848Z,5.50
2022-09-15T08:55:43.664Z,3.20
2022-09-15T08:58:36.273Z,3.53
2022-09-15T09:01:12.195Z,3.20
2022-09-15T09:04:13.720Z,3.70
2022-09-15T09:07:10.720Z,2.80
2022-09-15T09:09:57.775Z,3.00
2022-09-15T09:13:02.129Z,2.83
2022-09-15T09:15:36.374Z,3.00
2022-09-15T09:18:12.682Z,2.73
2022-09-15T09:20:52.974Z,3.40
2022-09-15T09:23:26.318Z,3.07
2022-09-15T09:25:53.477Z,4.27
2022-09-15T09:28:30.835Z,4.03
2022-09-15T09:31:04.183Z,4.97
2022-09-15T09:33:51.520Z,5.40
2022-09-15T09:36:18.615Z,3.30
2022-09-15T09:38:48.274Z,2.33
2022-09-15T09:41:21.695Z,3.10
2022-09-15T09:43:53.233Z,2.90
2022-09-15T09:46:23.062Z,2.30
2022-09-15T09:49:35.621Z,2.10
2022-09-15T09:52:04.788Z,2.27
2022-09-15T09:54:33.990Z,2.53
2022-09-15T09:57:40.998Z,2.20
2022-09-15T10:00:40.864Z,2.20
2022-09-15T10:03:18.386Z,3.20
2022-09-15T10:06:00.048Z,2.90
2022-09-15T10:08:27.532Z,2.50
2022-09-15T10:11:00.569Z,2.33
2022-09-15T10:13:27.473Z,2.90
2022-09-15T10:15:57.990Z,3.40
2022-09-15T10:18:38.380Z,3.07
2022-09-15T10:21:08.599Z,3.77
2022-09-15T10:23:36.319Z,2.43
2022-09-15T10:26:15.159Z,2.33
2022-09-15T10:28:43.388Z,2.23
2022-09-15T10:31:26.728Z,2.70
2022-09-15T10:33:53.707Z,2.27
2022-09-15T10:36:29.865Z,2.53
2022-09-15T10:39:21.491Z,2.70
2022-09-15T10:42:10.137Z,3.27
2022-09-15T10:44:54.761Z,3.07
2022-09-15T10:47:40.676Z,2.90
2022-09-15T10:50:21.223Z,2.58
2022-09-15T10:53:20.457Z,2.42
2022-09-15T10:55:58.730Z,3.13
2022-09-15T10:58:48.963Z,3.00
2022-09-15T11:01:19.051Z,3.33
2022-09-15T11:03:51.974Z,3.15
2022-09-15T11:06:32.828Z,2.35
2022-09-15T11:09:23.644Z,2.17
2022-09-15T11:11:51.697Z,3.17
2022-09-15T11:14:44.733Z,3.35
2022-09-15T11:17:30.498Z,3.95
2022-09-15T11:20:25.436Z,3.10
2022-09-15T11:22:54.995Z,3.40
2022-09-15T11:25:25.790Z,2.60
2022-09-15T11:28:04.571Z,4.07
2022-09-15T11:30:59.333Z,2.38
2022-09-15T11:33:47.964Z,3.17
2022-09-15T11:36:21.369Z,2.88
2022-09-15T11:38:57.693Z,3.60
2022-09-15T11:41:34.905Z,4.05
2022-09-15T11:44:43.396Z,3.90
2022-09-15T11:47:31.817Z,4.20
2022-09-15T11:50:09.971Z,3.95
2022-09-15T11:53:00.862Z,3.30
2022-09-15T11:56:19.910Z,3.00
2022-09-15T11:59:12.411Z,3.20
2022-09-15T12:01:59.588Z,2.72
2022-09-15T12:04:32.060Z,3.47
2022-09-15T12:07:14.559Z,2.67
2022-09-15T12:09:44.116Z,2.17
2022-09-15T12:12:22.818Z,2.65
2022-09-15T12:14:52.946Z,2.80
2022-09-15T12:17:37.622Z,3.00
2022-09-15T12:20:14.617Z,3.08
2022-09-15T12:22:47.938Z,2.40
2022-09-15T12:25:27.510Z,2.95
2022-09-15T12:28:22.180Z,2.72
2022-09-15T12:31:09.964Z,2.75
2022-09-15T12:33:42.861Z,2.50
2022-09-15T12:36:45.795Z,2.70
2022-09-15T12:39:18.658Z,2.85
2022-09-15T12:42:10.235Z,2.03
2022-09-15T12:44:40.663Z,2.28
2022-09-15T12:47:20.883Z,2.42
2022-09-15T12:49:50.477Z,2.15
2022-09-15T12:52:20.532Z,3.28
2022-09-15T12:54:54.672Z,2.45
2022-09-15T12:57:32.027Z,2.35
2022-09-15T13:00:23.846Z,2.35
2022-09-15T13:02:51.574Z,3.40
2022-09-15T13:05:43.118Z,2.30
2022-09-15T13:08:34.587Z,2.80
2022-09-15T13:11:20.898Z,2.90
2022-09-15T13:13:50.926Z,3.03
2022-09-15T13:17:10.372Z,2.60
2022-09-15T13:19:44.380Z,2.13
2022-09-15T13:22:11.297Z,2.88
2022-09-15T13:24:40.917Z,3.22
2022-09-15T13:27:08.958Z,2.55
2022-09-15T13:29:48.337Z,2.83
2022-09-15T13:32:18.427Z,3.67
2022-09-15T13:35:06.071Z,2.20
2022-09-15T13:38:08.385Z,3.00
2022-09-15T14:27:29.789Z,3.78
2022-09-15T14:29:58.622Z,3.58
2022-09-15T14:32:28.990Z,3.70
2022-09-15T14:35:04.029Z,3.60
2022-09-15T14:37:34.833Z,3.50
2022-09-15T14:40:17.353Z,3.25
2022-09-15T14:42:44.694Z,3.70
2022-09-15T14:48:01.473Z,2.47
2022-09-15T14:50:33.219Z,3.33
2022-09-15T14:53:10.611Z,3.50
2022-09-15T14:55:55.841Z,3.15
2022-09-15T14:58:32.641Z,3.60
2022-09-15T15:01:30.559Z,3.30
2022-09-15T15:04:18.928Z,2.78
2022-09-15T15:07:08.215Z,5.78
2022-09-15T15:09:49.250Z,3.30
2022-09-15T15:12:35.697Z,4.30
2022-09-15T15:15:03.193Z,5.10
2022-09-15T15:17:49.815Z,3.58
2022-09-15T15:20:23.625Z,4.18
2022-09-15T15:23:25.399Z,2.83
2022-09-15T15:25:53.959Z,2.93
2022-09-15T15:28:35.905Z,3.25
2022-09-15T15:31:07.629Z,2.67
2022-09-15T15:33:34.726Z,2.60
2022-09-15T15:36:09.121Z,3.33
2022-09-15T15:38:48.304Z,3.65
2022-09-15T15:45:53.248Z,3.03
2022-09-15T15:49:11.357Z,2.80
2022-09-15T15:51:38.204Z,2.93
2022-09-15T15:54:05.702Z,3.50
2022-09-15T15:59:23.326Z,3.10
2022-09-15T16:01:53.563Z,3.90
2022-09-15T16:04:20.513Z,3.67
2022-09-15T16:06:47.861Z,5.43
2022-09-15T16:09:17.297Z,4.40
2022-09-15T16:11:44.276Z,3.90
2022-09-15T16:14:13.530Z,4.07
2022-09-15T16:16:40.995Z,3.70
2022-09-15T16:19:08.655Z,4.10
2022-09-15T16:21:39.794Z,4.47
2022-09-15T16:24:12.698Z,5.10
2022-09-15T16:26:40.507Z,3.73
2022-09-15T16:36:15.442Z,4.87
2022-09-15T16:38:43.057Z,4.33
2022-09-15T16:41:12.777Z,5.83
2022-09-15T16:43:39.685Z,5.40
2022-09-15T16:46:08.708Z,8.30
2022-09-15T16:48:35.639Z,6.83
2022-09-15T16:51:20.985Z,7.30
2022-09-15T16:53:52.030Z,5.70
2022-09-15T16:56:19.455Z,6.77
2022-09-15T16:58:46.376Z,7.40
2022-09-15T17:01:18.905Z,6.57
2022-09-15T17:03:46.733Z,5.53
2022-09-15T17:06:16.376Z,5.67
2022-09-15T17:08:44.011Z,9.20
2022-09-15T17:11:16.512Z,4.50
2022-09-15T17:13:44.872Z,4.23
2022-09-15T17:16:14.915Z,4.80
2022-09-15T17:18:44.108Z,3.33
2022-09-15T17:21:12.375Z,3.80
2022-09-15T17:23:42.650Z,3.37
2022-09-15T17:26:12.936Z,3.73
2022-09-15T17:28:40.897Z,3.73
2022-09-15T17:31:13.503Z,4.20
2022-09-15T17:33:40.751Z,5.77
2022-09-15T17:36:08.182Z,4.90
2022-09-15T17:38:35.279Z,4.87
2022-09-15T17:41:03.004Z,4.27
2022-09-15T17:43:32.013Z,3.90
2022-09-15T17:46:01.860Z,3.53
2022-09-15T17:48:28.871Z,3.90
2022-09-15T17:50:55.751Z,3.70
2022-09-15T17:53:26.858Z,3.50
2022-09-15T17:55:55.560Z,4.63
2022-09-15T17:58:23.986Z,4.70
2022-09-15T18:00:52.420Z,4.63
2022-09-15T18:03:22.293Z,4.80
2022-09-15T18:05:50.351Z,4.07
2022-09-15T18:08:18.545Z,4.20
2022-09-15T18:10:46.053Z,3.67
2022-09-15T18:13:15.648Z,4.93
2022-09-15T18:15:44.351Z,4.50
2022-09-15T18:18:20.782Z,5.43
2022-09-15T18:20:54.079Z,5.40
2022-09-15T18:23:23.518Z,5.50
2022-09-15T18:25:53.552Z,4.20
2022-09-15T18:28:20.846Z,5.63
2022-09-15T18:30:51.956Z,6.83
2022-09-15T18:33:26.846Z,5.20
2022-09-15T18:35:56.312Z,5.27
2022-09-15T18:38:23.988Z,6.23
2022-09-15T18:40:57.949Z,5.60
2022-09-15T18:43:30.200Z,5.90
2022-09-15T18:46:01.314Z,4.10
2022-09-15T18:48:29.263Z,4.30
2022-09-15T18:50:57.864Z,3.20
2022-09-15T18:53:26.097Z,3.20
2022-09-15T18:55:53.029Z,3.03
2022-09-15T18:58:22.421Z,3.40
2022-09-15T19:00:54.252Z,2.67
2022-09-15T19:03:22.222Z,3.97
2022-09-15T19:05:51.262Z,2.80
2022-09-15T19:08:19.946Z,3.60
2022-09-15T19:10:57.816Z,3.30
2022-09-15T19:13:25.189Z,3.97
2022-09-15T19:15:53.688Z,4.23
2022-09-15T19:18:24.562Z,3.57
2022-09-15T19:21:05.705Z,3.40
2022-09-15T19:23:32.864Z,3.60
2022-09-15T19:26:11.601Z,3.67
2022-09-15T19:28:39.466Z,4.63
2022-09-15T19:31:06.925Z,3.90
2022-09-15T19:33:34.855Z,3.80
2022-09-15T19:36:26.786Z,2.67
2022-09-15T19:38:56.460Z,2.60
2022-09-15T19:41:27.365Z,3.50
2022-09-15T19:46:40.752Z,3.47
2022-09-15T19:49:08.220Z,3.20
2022-09-15T19:51:35.251Z,4.20
2022-09-15T19:54:02.170Z,4.03
2022-09-15T19:56:30.123Z,3.67
2022-09-15T19:58:59.149Z,3.57
2022-09-15T20:01:29.778Z,3.53
2022-09-15T20:03:58.596Z,3.43
2022-09-15T20:06:28.962Z,3.40
2022-09-15T20:08:59.467Z,3.30
2022-09-15T20:11:35.949Z,3.33
2022-09-15T20:14:03.802Z,2.83
2022-09-15T20:16:34.099Z,3.33
2022-09-15T20:19:03.715Z,3.97
2022-09-15T20:24:20.092Z,3.43
2022-09-15T20:26:48.640Z,2.73
2022-09-15T20:29:17.469Z,3.33
2022-09-15T20:31:46.373Z,3.20
2022-09-15T20:34:20.550Z,3.43
2022-09-15T20:36:50.103Z,2.90
2022-09-15T20:39:19.579Z,2.83
2022-09-15T20:41:48.915Z,3.23
2022-09-15T20:44:25.505Z,3.20
2022-09-15T20:46:54.166Z,3.20
2022-09-15T20:49:23.279Z,2.73
2022-09-15T20:51:59.409Z,2.70
2022-09-15T20:54:26.480Z,3.03
2022-09-15T20:56:53.401Z,3.40
2022-09-15T20:59:20.602Z,3.23
2022-09-15T21:01:47.608Z,3.27
2022-09-15T21:04:14.840Z,2.83
2022-09-15T21:06:41.772Z,3.10
2022-09-15T21:09:08.730Z,3.67
2022-09-15T21:11:35.799Z,3.10
2022-09-15T21:14:03.281Z,3.00
2022-09-15T21:16:30.532Z,3.10
2022-09-15T21:18:58.536Z,2.90
2022-09-15T21:21:28.371Z,3.10
2022-09-15T21:23:58.685Z,3.03
2022-09-15T21:26:27.820Z,3.30
2022-09-15T21:28:56.449Z,3.37
2022-09-15T21:31:26.731Z,2.77
2022-09-15T21:33:54.772Z,3.43
2022-09-15T21:36:25.028Z,3.57
2022-09-15T21:38:54.763Z,3.60
2022-09-15T21:41:26.022Z,3.83
2022-09-15T21:43:55.599Z,4.00
2022-09-15T21:46:25.920Z,3.20
2022-09-15T21:48:53.420Z,3.30
2022-09-15T21:51:24.508Z,4.17
2022-09-15T21:53:56.306Z,3.60
2022-09-15T21:56:24.620Z,3.40
2022-09-15T21:58:51.775Z,3.83
2022-09-15T22:01:21.546Z,3.90
2022-09-15T22:03:51.533Z,3.03
2022-09-15T22:06:20.978Z,3.47
2022-09-15T22:08:48.043Z,3.13
2022-09-15T22:11:15.435Z,3.47
2022-09-15T22:13:44.136Z,3.70
2022-09-15T22:16:16.660Z,3.57
2022-09-15T22:18:44.015Z,3.00
2022-09-15T22:21:14.931Z,3.43
2022-09-15T22:23:43.200Z,3.37
2022-09-15T22:26:12.941Z,4.00
2022-09-15T22:28:40.218Z,3.13
2022-09-15T22:31:10.390Z,2.63
2022-09-15T22:33:39.570Z,3.07
2022-09-15T22:36:13.254Z,3.07
2022-09-15T22:38:40.175Z,3.50
2022-09-15T22:41:09.468Z,3.00
2022-09-15T22:43:38.346Z,3.47
2022-09-15T22:46:06.383Z,3.30
2022-09-15T22:48:33.576Z,2.70
2022-09-15T22:51:00.918Z,3.20
2022-09-15T22:53:27.959Z,3.07
2022-09-15T22:56:05.438Z,2.80
2022-09-15T22:58:36.371Z,2.67
2022-09-15T23:01:04.366Z,3.37
2022-09-15T23:03:31.721Z,3.30
2022-09-15T23:05:59.779Z,2.77
2022-09-15T23:08:26.805Z,3.10
2022-09-15T23:10:53.839Z,2.90
2022-09-15T23:13:20.683Z,3.40
2022-09-15T23:15:49.122Z,3.10
2022-09-15T23:18:17.840Z,3.37
2022-09-15T23:20:45.400Z,3.57
2022-09-15T23:23:12.308Z,3.43
2022-09-15T23:25:39.126Z,3.37
2022-09-15T23:28:05.954Z,3.50
2022-09-15T23:30:32.822Z,3.30
2022-09-15T23:32:59.670Z,3.67
2022-09-15T23:35:26.534Z,3.03
2022-09-15T23:37:53.379Z,3.10
2022-09-15T23:40:20.498Z,3.27
2022-09-15T23:42:49.863Z,3.67
2022-09-15T23:45:16.730Z,3.13
2022-09-15T23:47:43.598Z,3.67
2022-09-15T23:50:10.480Z,3.00
2022-09-15T23:52:37.529Z,3.70
2022-09-15T23:55:04.871Z,3.47
2022-09-15T23:57:31.768Z,3.87
2022-09-15T23:59:58.599Z,3.53
